Etusivu
METAR-TAF:

METAR-TAF

Lentoasemat :

Yaoundé, Kamerun

Leveyspiiri: 03-50N, Pituuspiiri: 011-31E, korkeus merenpinnasta: 751 m

Tämänhetkinen sää

Tämä raportti tehtiin 2 tuntia ja 12 minuuttia sitten, kello 22.00 UTC
Lämpötila 22°C
Kosteus 94%
Ilmanpaine 1017 hPa
Näkyvyys: 8000 m
Muutamia pilviä 1000 ft:n korkeudessa

METAR: FKYS 202200Z /////KT 8000 FEW010 22/21 Q1017 NOSIG

Aika: 01:12 (00:12 UTC)

Sääennuste

Tämä raportti tehtiin 1 tunti ja 12 minuuttia sitten, kello 23.00 UTC
Ennuste voimassa 21. päivästä klo 00 UTC - 21. päivään klo 24 UTC
Tuuli 3 kn eri suunnista
Näkyvyys 10 km tai enemmän
Hajonneita pilviä 600 ft:n korkeudessa
Todennäköisyys 30%
21. päivästä klo 04 UTC - 21. päivään klo 06 UTC
Näkyvyys: 2500 m
utua
Tulossa
21. päivästä klo 06 UTC - 21. päivään klo 08 UTC
Hajonneita pilviä 1600 ft:n korkeudessa

TAF: FKYS 202300Z 2100/2124 VRB03KT 9999 BKN006 PROB30 2104/2106 2500 BR BECMG 2106/2108 BKN016

Säähavainnot ja -ennusteet yli 4000 lentoasemalta (METAR- ja TAF-raportit).

Käytössä olevat sääasemat on merkitty karttaan keltaisilla ja punaisilla pisteillä.

Aseta hiiri pisteen päälle nähdäksesi sääaseman nimen.

Klikkaa sitten nähdäksesi säähavainnot ja -ennusteet.

Kartan vaihtaminen: klikkaa mustalla rastilla varustettuja vihreitä pisteitä, niin voit zoomata sisään; viivalla varustettua vihreää pistettä, niin voit zoomata ulos tai vihreitä nuolia, niin pääset viereisille kartoille.


METAR-TAF: